createdAt,value
2018-11-21T00:00:27.996Z,1.30
2018-11-21T00:01:27.860Z,1.30
2018-11-21T00:02:27.725Z,1.00
2018-11-21T00:03:27.594Z,1.30
2018-11-21T00:04:27.454Z,1.10
2018-11-21T00:05:27.318Z,1.40
2018-11-21T00:06:27.191Z,1.20
2018-11-21T00:07:27.050Z,1.40
2018-11-21T00:08:26.915Z,1.30
2018-11-21T00:09:26.782Z,1.40
2018-11-21T00:10:26.647Z,1.20
2018-11-21T00:11:26.509Z,1.20
2018-11-21T00:12:26.379Z,1.10
2018-11-21T00:13:26.241Z,1.30
2018-11-21T00:14:26.107Z,1.30
2018-11-21T00:15:25.972Z,1.20
2018-11-21T00:16:25.845Z,1.20
2018-11-21T00:17:25.702Z,1.30
2018-11-21T00:18:25.570Z,1.30
2018-11-21T00:19:25.433Z,1.10
2018-11-21T00:20:25.298Z,1.20
2018-11-21T00:21:25.166Z,1.10
2018-11-21T00:22:25.029Z,1.10
2018-11-21T00:23:24.898Z,1.30
2018-11-21T00:24:24.761Z,1.10
2018-11-21T00:25:24.627Z,1.20
2018-11-21T00:26:24.490Z,1.10
2018-11-21T00:27:24.358Z,1.10
2018-11-21T00:28:24.224Z,1.20
2018-11-21T00:29:24.089Z,1.20
2018-11-21T00:30:23.953Z,1.10
2018-11-21T00:31:23.819Z,1.20
2018-11-21T00:32:23.683Z,1.10
2018-11-21T00:33:23.565Z,1.10
2018-11-21T00:34:23.418Z,1.10
2018-11-21T00:35:23.280Z,1.30
2018-11-21T00:36:24.900Z,1.20
2018-11-21T00:37:23.011Z,1.10
2018-11-21T00:38:22.876Z,1.20
2018-11-21T00:39:22.744Z,1.00
2018-11-21T00:40:22.608Z,1.10
2018-11-21T00:41:22.473Z,1.10
2018-11-21T00:42:22.340Z,1.20
2018-11-21T00:43:22.208Z,1.10
2018-11-21T00:44:22.073Z,1.20
2018-11-21T00:45:21.937Z,1.10
2018-11-21T00:46:21.800Z,1.00
2018-11-21T00:47:21.667Z,1.00
2018-11-21T00:48:21.532Z,1.10
2018-11-21T00:49:21.397Z,1.10
2018-11-21T00:50:21.264Z,1.20
2018-11-21T00:51:21.128Z,1.10
2018-11-21T00:52:20.995Z,1.10
2018-11-21T00:53:20.859Z,1.10
2018-11-21T00:54:20.723Z,1.20
2018-11-21T00:55:20.589Z,1.20
2018-11-21T00:56:20.455Z,1.10
2018-11-21T00:57:20.320Z,1.00
2018-11-21T00:58:20.188Z,1.10
2018-11-21T00:59:20.058Z,1.00
2018-11-21T01:00:19.922Z,0.90
2018-11-21T01:01:19.791Z,1.20
2018-11-21T01:02:19.647Z,1.00
2018-11-21T01:03:19.513Z,1.10
2018-11-21T01:04:19.380Z,0.90
2018-11-21T01:05:19.248Z,1.00
2018-11-21T01:06:19.109Z,1.00
2018-11-21T01:07:18.977Z,1.00
2018-11-21T01:08:18.839Z,1.00
2018-11-21T01:09:18.707Z,0.80
2018-11-21T01:10:18.574Z,0.80
2018-11-21T01:11:18.438Z,1.10
2018-11-21T01:12:18.302Z,0.90
2018-11-21T01:13:18.169Z,1.00
2018-11-21T01:14:18.037Z,0.80
2018-11-21T01:15:17.899Z,1.00
2018-11-21T01:16:17.764Z,0.90
2018-11-21T01:17:17.630Z,0.90
2018-11-21T01:18:17.497Z,0.90
2018-11-21T01:19:17.362Z,0.90
2018-11-21T01:20:17.226Z,0.80
2018-11-21T01:21:17.092Z,1.10
2018-11-21T01:22:16.957Z,1.00
2018-11-21T01:23:16.821Z,1.00
2018-11-21T01:24:16.686Z,0.90
2018-11-21T01:25:16.553Z,0.80
2018-11-21T01:26:16.419Z,1.10
2018-11-21T01:27:16.281Z,0.90
2018-11-21T01:28:16.150Z,1.00
2018-11-21T01:29:16.015Z,0.80
2018-11-21T01:30:15.882Z,1.10
2018-11-21T01:31:15.744Z,1.00
2018-11-21T01:32:15.611Z,1.00
2018-11-21T01:33:15.476Z,0.90
2018-11-21T01:34:15.344Z,1.00
2018-11-21T01:35:15.210Z,1.00
2018-11-21T01:36:15.073Z,0.90
2018-11-21T01:37:14.941Z,1.10
2018-11-21T01:38:14.807Z,0.90
2018-11-21T01:39:14.668Z,0.90
2018-11-21T01:40:14.536Z,0.90
2018-11-21T01:41:14.401Z,0.90
2018-11-21T01:42:14.270Z,1.00
2018-11-21T01:43:14.131Z,0.90
2018-11-21T01:44:13.998Z,1.00
2018-11-21T01:45:13.867Z,0.90
2018-11-21T01:46:13.737Z,1.10
2018-11-21T01:47:13.596Z,0.90
2018-11-21T01:48:13.462Z,0.90
2018-11-21T01:49:13.326Z,0.80
2018-11-21T01:50:13.192Z,0.90
2018-11-21T01:51:13.057Z,0.90
2018-11-21T01:52:12.925Z,0.80
2018-11-21T01:53:12.791Z,0.90
2018-11-21T01:54:12.656Z,0.80
2018-11-21T01:55:12.521Z,0.80
2018-11-21T01:56:12.387Z,0.90
2018-11-21T01:57:12.253Z,0.90
2018-11-21T01:58:12.118Z,0.90
2018-11-21T01:59:11.985Z,0.90
2018-11-21T02:00:11.850Z,0.90
2018-11-21T02:01:11.720Z,0.80
2018-11-21T02:02:11.581Z,0.90
2018-11-21T02:03:11.447Z,0.80
2018-11-21T02:04:11.312Z,0.80
2018-11-21T02:05:11.179Z,0.80
2018-11-21T02:06:11.047Z,0.80
2018-11-21T02:07:10.916Z,0.80
2018-11-21T02:08:10.774Z,0.80
2018-11-21T02:09:10.647Z,0.90
2018-11-21T02:10:10.512Z,0.70
2018-11-21T02:11:10.372Z,0.70
2018-11-21T02:12:10.237Z,0.90
2018-11-21T02:13:10.104Z,0.80
2018-11-21T02:14:09.969Z,0.90
2018-11-21T02:15:09.835Z,0.80
2018-11-21T02:16:09.701Z,0.80
2018-11-21T02:17:09.566Z,0.90
2018-11-21T02:18:09.434Z,0.90
2018-11-21T02:19:09.296Z,0.80
2018-11-21T02:20:09.163Z,0.90
2018-11-21T02:21:09.029Z,0.80
2018-11-21T02:22:08.894Z,0.80
2018-11-21T02:23:08.760Z,0.90
2018-11-21T02:24:08.628Z,0.80
2018-11-21T02:25:08.496Z,0.80
2018-11-21T02:26:08.358Z,0.70
2018-11-21T02:27:08.223Z,0.70
2018-11-21T02:28:08.093Z,0.80
2018-11-21T02:29:07.955Z,0.70
2018-11-21T02:30:07.826Z,0.80
2018-11-21T02:31:07.694Z,1.00
2018-11-21T02:32:07.558Z,0.80
2018-11-21T02:33:07.420Z,0.80
2018-11-21T02:34:07.284Z,0.80
2018-11-21T02:35:07.149Z,0.80
2018-11-21T02:36:07.016Z,0.80
2018-11-21T02:37:06.883Z,0.80
2018-11-21T02:38:06.746Z,0.80
2018-11-21T02:39:06.612Z,0.90
2018-11-21T02:40:06.480Z,0.80
2018-11-21T02:41:06.345Z,0.80
2018-11-21T02:42:06.219Z,0.90
2018-11-21T02:43:06.074Z,0.80
2018-11-21T02:44:05.947Z,0.80
2018-11-21T02:45:05.809Z,0.80
2018-11-21T02:46:05.678Z,0.90
2018-11-21T02:47:05.537Z,0.80
2018-11-21T02:48:05.407Z,0.80
2018-11-21T02:49:05.271Z,0.80
2018-11-21T02:50:05.140Z,0.80
2018-11-21T02:51:05.001Z,0.80
2018-11-21T02:52:04.869Z,0.70
2018-11-21T02:53:04.735Z,0.80
2018-11-21T02:54:04.602Z,0.70
2018-11-21T02:55:04.466Z,0.80
2018-11-21T02:56:04.335Z,0.80
2018-11-21T02:57:04.202Z,0.70
2018-11-21T02:58:04.062Z,0.80
2018-11-21T02:59:03.931Z,0.80
2018-11-21T03:00:03.794Z,0.70
2018-11-21T03:01:03.661Z,0.80
2018-11-21T03:02:03.527Z,0.70
2018-11-21T03:03:03.398Z,0.70
2018-11-21T03:04:03.258Z,0.80
2018-11-21T03:05:03.127Z,0.80
2018-11-21T03:06:02.991Z,0.70
2018-11-21T03:07:02.856Z,0.60
2018-11-21T03:08:02.721Z,0.70
2018-11-21T03:09:02.588Z,0.70
2018-11-21T03:10:02.463Z,0.70
2018-11-21T03:11:02.321Z,0.60
2018-11-21T03:12:02.183Z,0.70
2018-11-21T03:13:02.053Z,0.70
2018-11-21T03:14:01.916Z,0.80
2018-11-21T03:15:01.781Z,0.70
2018-11-21T03:16:01.646Z,0.70
2018-11-21T03:17:01.512Z,0.70
2018-11-21T03:18:01.379Z,0.70
2018-11-21T03:19:01.242Z,0.80
2018-11-21T03:20:01.115Z,0.80
2018-11-21T03:21:00.980Z,0.70
2018-11-21T03:22:00.842Z,0.70
2018-11-21T03:23:00.710Z,0.70
2018-11-21T03:24:00.571Z,0.80
2018-11-21T03:25:00.440Z,0.80
2018-11-21T03:26:00.303Z,0.70
2018-11-21T03:27:00.183Z,0.70
2018-11-21T03:28:00.037Z,0.80
2018-11-21T03:28:59.903Z,0.90
2018-11-21T03:29:59.783Z,0.70
2018-11-21T03:30:59.638Z,0.70
2018-11-21T03:31:59.499Z,0.70
2018-11-21T03:32:59.366Z,0.70
2018-11-21T03:33:59.232Z,0.70
2018-11-21T03:34:59.097Z,0.70
2018-11-21T03:35:58.963Z,0.70
2018-11-21T03:36:58.827Z,0.70
2018-11-21T03:37:58.697Z,0.70
2018-11-21T03:38:58.564Z,0.70
2018-11-21T03:39:58.429Z,0.80
2018-11-21T03:40:58.294Z,0.80
2018-11-21T03:41:58.157Z,0.70
2018-11-21T03:42:58.022Z,0.80
2018-11-21T03:43:57.891Z,0.70
2018-11-21T03:44:57.754Z,0.70
2018-11-21T03:45:57.619Z,0.70
2018-11-21T03:46:57.484Z,0.80
2018-11-21T03:47:57.351Z,0.60
2018-11-21T03:48:57.224Z,0.70
2018-11-21T03:49:57.083Z,0.80
2018-11-21T03:50:56.949Z,0.70
2018-11-21T03:51:56.815Z,0.70
2018-11-21T03:52:56.679Z,0.60
2018-11-21T03:53:56.547Z,0.70
2018-11-21T03:54:56.410Z,0.70
2018-11-21T03:55:56.276Z,0.70
2018-11-21T03:56:56.144Z,0.60
2018-11-21T03:57:56.011Z,0.80
2018-11-21T03:58:55.873Z,0.70
2018-11-21T03:59:55.741Z,0.60
2018-11-21T04:00:55.609Z,0.70
2018-11-21T04:01:55.474Z,0.60
2018-11-21T04:02:55.347Z,0.60
2018-11-21T04:03:55.211Z,0.60
2018-11-21T04:04:55.089Z,0.60
2018-11-21T04:05:54.939Z,0.60
2018-11-21T04:06:54.803Z,0.70
2018-11-21T04:07:54.669Z,0.60
2018-11-21T04:08:54.538Z,0.70
2018-11-21T04:09:54.400Z,0.70
2018-11-21T04:10:54.267Z,0.70
2018-11-21T04:11:54.579Z,0.70
2018-11-21T04:12:53.995Z,0.70
2018-11-21T04:13:53.874Z,0.70
2018-11-21T04:14:53.744Z,0.80
2018-11-21T04:15:53.601Z,0.60
2018-11-21T04:16:53.460Z,0.80
2018-11-21T04:17:53.329Z,0.80
2018-11-21T04:18:53.195Z,0.70
2018-11-21T04:19:53.058Z,0.70
2018-11-21T04:20:52.925Z,0.60
2018-11-21T04:21:52.790Z,0.60
2018-11-21T04:22:52.654Z,0.70
2018-11-21T04:23:52.521Z,0.60
2018-11-21T04:24:52.390Z,0.70
2018-11-21T04:25:52.312Z,0.70
2018-11-21T04:26:52.119Z,0.70
2018-11-21T04:27:51.983Z,0.80
2018-11-21T04:28:51.849Z,0.70
2018-11-21T04:29:51.718Z,0.70
2018-11-21T04:30:51.585Z,0.70
2018-11-21T04:31:51.450Z,0.60
2018-11-21T04:32:51.314Z,0.70
2018-11-21T04:33:51.182Z,0.70
2018-11-21T04:34:51.047Z,0.70
2018-11-21T04:35:50.915Z,0.70
2018-11-21T04:36:50.778Z,0.60
2018-11-21T04:37:50.651Z,0.70
2018-11-21T04:38:50.510Z,0.70
2018-11-21T04:39:50.411Z,0.70
2018-11-21T04:40:50.242Z,0.50
2018-11-21T04:41:50.110Z,0.70
2018-11-21T04:42:49.977Z,0.70
2018-11-21T04:43:49.845Z,0.70
2018-11-21T04:44:49.705Z,0.60
2018-11-21T04:45:49.573Z,0.70
2018-11-21T04:46:49.440Z,0.70
2018-11-21T04:47:49.305Z,0.60
2018-11-21T04:48:49.169Z,0.70
2018-11-21T04:49:49.035Z,0.70
2018-11-21T04:50:48.903Z,0.70
2018-11-21T04:51:48.767Z,0.70
2018-11-21T04:52:48.633Z,0.80
2018-11-21T04:53:48.538Z,0.70
2018-11-21T04:54:48.365Z,0.70
2018-11-21T04:55:48.231Z,0.70
2018-11-21T04:56:48.102Z,0.70
2018-11-21T04:57:47.965Z,0.60
2018-11-21T04:58:47.828Z,0.60
2018-11-21T04:59:47.713Z,0.70
2018-11-21T05:00:47.565Z,0.80
2018-11-21T05:01:47.427Z,0.70
2018-11-21T05:02:47.291Z,0.70
2018-11-21T05:03:47.156Z,0.70
2018-11-21T05:04:47.024Z,0.60
2018-11-21T05:05:46.889Z,0.60
2018-11-21T05:06:46.757Z,0.70
2018-11-21T05:07:46.620Z,0.60
2018-11-21T05:08:46.491Z,0.60
2018-11-21T05:09:46.358Z,0.70
2018-11-21T05:10:46.219Z,0.60
2018-11-21T05:11:46.086Z,0.80
2018-11-21T05:12:50.877Z,0.70
2018-11-21T05:13:45.817Z,0.70
2018-11-21T05:14:45.820Z,0.60
2018-11-21T05:15:45.552Z,0.70
2018-11-21T05:16:45.426Z,0.70
2018-11-21T05:17:45.281Z,0.60
2018-11-21T05:18:45.151Z,0.70
2018-11-21T05:19:45.014Z,0.70
2018-11-21T05:20:44.880Z,0.80
2018-11-21T05:21:44.746Z,0.60
2018-11-21T05:22:44.613Z,0.60
2018-11-21T05:23:44.478Z,0.60
2018-11-21T05:24:44.344Z,0.70
2018-11-21T05:25:44.209Z,0.60
2018-11-21T05:26:44.075Z,0.60
2018-11-21T05:27:43.939Z,0.60
2018-11-21T05:28:43.807Z,0.70
2018-11-21T05:29:43.673Z,0.60
2018-11-21T05:30:43.540Z,0.70
2018-11-21T05:31:43.406Z,0.60
2018-11-21T05:32:43.280Z,0.60
2018-11-21T05:33:43.135Z,0.80
2018-11-21T05:34:43.003Z,0.60
2018-11-21T05:35:42.874Z,0.70
2018-11-21T05:36:42.735Z,0.70
2018-11-21T05:37:42.601Z,0.60
2018-11-21T05:38:42.466Z,0.60
2018-11-21T05:39:42.333Z,0.60
2018-11-21T05:40:42.200Z,0.60
2018-11-21T05:41:42.064Z,0.70
2018-11-21T05:42:41.930Z,0.70
2018-11-21T05:43:41.797Z,0.60
2018-11-21T05:44:41.663Z,0.60
2018-11-21T05:45:41.529Z,0.60
2018-11-21T05:46:41.393Z,0.70
2018-11-21T05:47:41.259Z,0.60
2018-11-21T05:48:41.126Z,0.60
2018-11-21T05:49:40.993Z,0.70
2018-11-21T05:50:40.859Z,0.70
2018-11-21T05:51:40.726Z,0.70
2018-11-21T05:52:40.592Z,0.60
2018-11-21T05:53:40.458Z,0.60
2018-11-21T05:54:40.321Z,0.70
2018-11-21T05:55:40.188Z,0.60
2018-11-21T05:56:40.055Z,0.60
2018-11-21T05:57:39.921Z,0.70
2018-11-21T05:58:39.793Z,0.60
2018-11-21T05:59:39.656Z,0.60
2018-11-21T06:00:39.521Z,0.60
2018-11-21T06:01:39.386Z,0.70
2018-11-21T06:02:39.260Z,0.60
2018-11-21T06:03:39.121Z,0.60
2018-11-21T06:04:38.984Z,0.60
2018-11-21T06:05:38.858Z,0.60
2018-11-21T06:06:38.715Z,0.60
2018-11-21T06:07:38.582Z,0.60
2018-11-21T06:08:38.449Z,0.60
2018-11-21T06:09:38.318Z,0.60
2018-11-21T06:10:38.181Z,0.60
2018-11-21T06:11:38.047Z,0.60
2018-11-21T06:12:37.913Z,0.60
2018-11-21T06:13:37.782Z,0.60
2018-11-21T06:14:37.651Z,0.60
2018-11-21T06:15:37.513Z,0.60
2018-11-21T06:16:37.380Z,0.70
2018-11-21T06:17:37.245Z,0.60
2018-11-21T06:18:37.109Z,0.70
2018-11-21T06:19:36.979Z,0.60
2018-11-21T06:20:36.842Z,0.60
2018-11-21T06:21:36.709Z,0.70
2018-11-21T06:22:36.575Z,0.60
2018-11-21T06:23:36.441Z,0.60
2018-11-21T06:24:36.309Z,0.60
2018-11-21T06:25:36.174Z,0.70
2018-11-21T06:26:36.038Z,0.60
2018-11-21T06:27:35.909Z,0.70
2018-11-21T06:28:35.772Z,0.60
2018-11-21T06:29:35.641Z,0.60
2018-11-21T06:30:35.505Z,0.60
2018-11-21T06:31:35.372Z,0.60
2018-11-21T06:32:35.237Z,0.60
2018-11-21T06:33:35.104Z,0.60
2018-11-21T06:34:34.977Z,0.60
2018-11-21T06:35:34.842Z,0.60
2018-11-21T06:36:34.706Z,0.60
2018-11-21T06:37:34.569Z,0.60
2018-11-21T06:38:34.440Z,0.60
2018-11-21T06:39:34.302Z,0.60
2018-11-21T06:40:34.169Z,0.60
2018-11-21T06:41:34.035Z,0.60
2018-11-21T06:42:33.901Z,0.60
2018-11-21T06:43:33.769Z,0.60
2018-11-21T06:44:33.634Z,0.60
2018-11-21T06:45:33.500Z,0.60
2018-11-21T06:46:33.365Z,0.60
2018-11-21T06:47:33.231Z,0.70
2018-11-21T06:48:33.099Z,0.70
2018-11-21T06:49:32.965Z,0.60
2018-11-21T06:50:32.828Z,0.60
2018-11-21T06:51:35.333Z,0.70
2018-11-21T06:52:32.564Z,0.70
2018-11-21T06:53:32.442Z,0.60
2018-11-21T06:54:32.297Z,0.60
2018-11-21T06:55:32.161Z,0.60
2018-11-21T06:56:32.036Z,0.60
2018-11-21T06:57:31.897Z,0.60
2018-11-21T06:58:31.761Z,0.60
2018-11-21T06:59:31.630Z,0.60
2018-11-21T07:00:31.493Z,0.60
2018-11-21T07:01:31.364Z,0.60
2018-11-21T07:02:31.227Z,0.60
2018-11-21T07:03:31.094Z,0.60
2018-11-21T07:04:30.964Z,0.60
2018-11-21T07:05:30.827Z,0.60
2018-11-21T07:06:30.696Z,0.60
2018-11-21T07:07:30.559Z,0.60
2018-11-21T07:08:30.427Z,0.60
2018-11-21T07:09:30.294Z,0.90
2018-11-21T07:10:30.158Z,0.60
2018-11-21T07:11:30.028Z,0.70
2018-11-21T07:12:29.890Z,0.60
2018-11-21T07:13:29.760Z,0.60
2018-11-21T07:14:29.625Z,0.60
2018-11-21T07:15:29.491Z,0.60
2018-11-21T07:16:29.359Z,0.60
2018-11-21T07:17:29.225Z,0.70
2018-11-21T07:18:29.093Z,0.70
2018-11-21T07:19:28.962Z,0.60
2018-11-21T07:20:28.824Z,0.60
2018-11-21T07:21:28.691Z,0.60
2018-11-21T07:22:28.559Z,0.60
2018-11-21T07:23:28.426Z,0.50
2018-11-21T07:24:28.290Z,0.60
2018-11-21T07:25:28.157Z,0.60
2018-11-21T07:26:28.026Z,0.60
2018-11-21T07:27:27.890Z,0.60
2018-11-21T07:28:27.757Z,0.60
2018-11-21T07:29:34.275Z,0.60
2018-11-21T07:30:27.489Z,0.70
2018-11-21T07:31:27.364Z,0.60
2018-11-21T07:32:27.222Z,0.70
2018-11-21T07:33:27.103Z,0.70
2018-11-21T07:34:26.956Z,0.60
2018-11-21T07:35:26.831Z,0.60
2018-11-21T07:36:26.690Z,0.70
2018-11-21T07:37:26.560Z,0.70
2018-11-21T07:38:26.423Z,0.60
2018-11-21T07:39:26.292Z,0.60
2018-11-21T07:40:26.157Z,0.60
2018-11-21T07:41:26.023Z,0.70
2018-11-21T07:42:26.132Z,0.60
2018-11-21T07:43:25.759Z,0.70
2018-11-21T07:44:25.622Z,0.60
2018-11-21T07:45:25.489Z,1.10
2018-11-21T07:46:25.361Z,0.60
2018-11-21T07:47:26.612Z,0.60
2018-11-21T07:48:25.096Z,0.60
2018-11-21T07:49:24.961Z,0.70
2018-11-21T07:50:24.823Z,0.60
2018-11-21T07:51:24.689Z,0.60
2018-11-21T07:52:24.562Z,0.60
2018-11-21T07:53:24.424Z,0.60
2018-11-21T07:54:24.292Z,0.60
2018-11-21T07:55:24.157Z,0.60
2018-11-21T07:56:24.025Z,0.60
2018-11-21T07:57:23.893Z,0.60
2018-11-21T07:58:23.758Z,0.60
2018-11-21T07:59:23.630Z,0.70
2018-11-21T08:00:23.491Z,0.60
2018-11-21T08:01:23.368Z,0.60
2018-11-21T08:02:23.226Z,0.60
2018-11-21T08:03:23.091Z,0.60
2018-11-21T08:04:22.958Z,0.60
2018-11-21T08:05:22.826Z,0.60
2018-11-21T08:06:22.692Z,0.60
2018-11-21T08:07:22.559Z,0.60
2018-11-21T08:08:22.425Z,0.70
2018-11-21T08:09:22.294Z,0.60
2018-11-21T08:10:22.160Z,0.60
2018-11-21T08:11:22.028Z,0.60
2018-11-21T08:12:21.895Z,0.70
2018-11-21T08:13:21.762Z,0.60
2018-11-21T08:14:21.628Z,0.60
2018-11-21T08:15:21.501Z,0.70
2018-11-21T08:16:21.362Z,0.70
2018-11-21T08:17:21.228Z,0.60
2018-11-21T08:18:21.098Z,0.60
2018-11-21T08:19:20.964Z,0.60
2018-11-21T08:20:20.830Z,0.60
2018-11-21T08:21:20.696Z,0.50
2018-11-21T08:22:20.562Z,0.80
2018-11-21T08:23:20.431Z,0.60
2018-11-21T08:24:20.298Z,0.60
2018-11-21T08:25:20.167Z,0.60
2018-11-21T08:26:20.038Z,0.60
2018-11-21T08:27:19.898Z,0.60
2018-11-21T08:28:19.767Z,0.60
2018-11-21T08:29:19.636Z,0.60
2018-11-21T08:30:19.502Z,0.60
2018-11-21T08:31:19.369Z,0.60
2018-11-21T08:32:19.237Z,0.60
2018-11-21T08:33:19.103Z,0.70
2018-11-21T08:34:18.971Z,0.70
2018-11-21T08:35:18.838Z,0.60
2018-11-21T08:36:18.705Z,0.70
2018-11-21T08:37:18.575Z,0.60
2018-11-21T08:38:18.441Z,0.60
2018-11-21T08:39:18.309Z,0.60
2018-11-21T08:40:18.181Z,0.60
2018-11-21T08:41:18.044Z,0.60
2018-11-21T08:42:17.908Z,0.60
2018-11-21T08:43:17.777Z,0.70
2018-11-21T08:44:17.646Z,0.70
2018-11-21T08:45:17.513Z,0.60
2018-11-21T08:46:17.383Z,0.70
2018-11-21T08:47:17.249Z,0.60
2018-11-21T08:48:17.115Z,0.50
2018-11-21T08:49:16.984Z,0.60
2018-11-21T08:50:16.850Z,0.70
2018-11-21T08:51:16.722Z,0.70
2018-11-21T08:52:16.591Z,0.80
2018-11-21T08:53:16.456Z,0.70
2018-11-21T08:54:16.324Z,0.60
2018-11-21T08:55:16.190Z,0.70
2018-11-21T08:56:16.057Z,0.70
2018-11-21T08:57:15.926Z,0.70
2018-11-21T08:58:15.793Z,0.60
2018-11-21T08:59:15.662Z,0.60
2018-11-21T09:00:15.532Z,0.80
2018-11-21T09:01:15.398Z,0.80
2018-11-21T09:02:15.263Z,0.80
2018-11-21T09:03:15.134Z,0.70
2018-11-21T09:04:15.002Z,0.70
2018-11-21T09:05:14.878Z,0.80
2018-11-21T09:06:14.736Z,0.60
2018-11-21T09:07:14.603Z,0.70
2018-11-21T09:08:14.471Z,0.80
2018-11-21T09:09:14.342Z,0.90
2018-11-21T09:10:14.207Z,0.80
2018-11-21T09:11:14.079Z,0.90
2018-11-21T09:12:15.418Z,0.60
2018-11-21T09:13:13.818Z,0.90
2018-11-21T09:14:13.684Z,1.40
2018-11-21T09:15:13.553Z,1.00
2018-11-21T09:16:13.422Z,0.90
2018-11-21T09:17:13.291Z,0.90
2018-11-21T09:18:13.163Z,0.90
2018-11-21T09:19:13.039Z,0.80
2018-11-21T09:20:12.897Z,1.10
2018-11-21T09:21:12.772Z,1.00
2018-11-21T09:22:12.638Z,0.90
2018-11-21T09:23:12.507Z,0.90
2018-11-21T09:24:12.375Z,0.90
2018-11-21T09:25:12.248Z,0.90
2018-11-21T09:26:12.118Z,0.80
2018-11-21T09:27:11.988Z,0.90
2018-11-21T09:28:11.860Z,1.10
2018-11-21T09:29:11.730Z,0.90
2018-11-21T09:30:11.598Z,1.00
2018-11-21T09:31:11.473Z,0.90
2018-11-21T09:32:11.341Z,0.80
2018-11-21T09:33:11.213Z,0.90
2018-11-21T09:34:11.081Z,0.80
2018-11-21T09:35:10.953Z,0.90
2018-11-21T09:36:10.824Z,0.90
2018-11-21T09:37:10.696Z,0.80
2018-11-21T09:38:10.567Z,0.90
2018-11-21T09:39:10.438Z,1.00
2018-11-21T09:40:10.307Z,0.90
2018-11-21T09:41:10.179Z,1.00
2018-11-21T09:42:10.052Z,1.10
2018-11-21T09:43:09.923Z,1.10
2018-11-21T09:44:09.794Z,0.90
2018-11-21T09:45:09.672Z,0.80
2018-11-21T09:46:09.536Z,0.80
2018-11-21T09:47:09.415Z,0.80
2018-11-21T09:48:09.279Z,0.90
2018-11-21T09:49:09.151Z,0.90
2018-11-21T09:50:09.024Z,1.10
2018-11-21T09:51:08.896Z,1.00
2018-11-21T09:52:08.769Z,1.10
2018-11-21T09:53:08.641Z,1.10
2018-11-21T09:54:08.520Z,1.50
2018-11-21T09:55:08.384Z,1.20
2018-11-21T09:56:08.262Z,1.00
2018-11-21T09:57:08.130Z,0.90
2018-11-21T09:58:08.003Z,0.90
2018-11-21T09:59:07.878Z,1.00
2018-11-21T10:00:07.750Z,1.10
2018-11-21T10:01:07.620Z,1.00
2018-11-21T10:02:07.491Z,1.10
2018-11-21T10:03:07.364Z,0.80
2018-11-21T10:04:07.238Z,1.00
2018-11-21T10:05:07.115Z,1.00
2018-11-21T10:06:06.982Z,0.90
2018-11-21T10:07:06.855Z,1.00
2018-11-21T10:08:06.731Z,0.80
2018-11-21T10:09:06.604Z,0.90
2018-11-21T10:10:06.475Z,1.00
2018-11-21T10:11:06.350Z,0.90
2018-11-21T10:12:06.224Z,0.80
2018-11-21T10:13:06.099Z,0.80
2018-11-21T10:14:05.973Z,0.80
2018-11-21T10:15:05.846Z,0.80
2018-11-21T10:16:05.725Z,0.70
2018-11-21T10:17:05.595Z,1.00
2018-11-21T10:18:05.470Z,0.90
2018-11-21T10:19:05.344Z,0.80
2018-11-21T10:20:05.217Z,0.90
2018-11-21T10:21:05.095Z,0.90
2018-11-21T10:22:04.971Z,0.90
2018-11-21T10:23:04.844Z,0.90
2018-11-21T10:24:04.720Z,0.90
2018-11-21T10:25:04.592Z,0.90
2018-11-21T10:26:04.468Z,1.00
2018-11-21T10:27:04.349Z,1.00
2018-11-21T10:28:04.218Z,0.90
2018-11-21T10:29:04.095Z,0.90
2018-11-21T10:30:03.971Z,0.80
2018-11-21T10:31:03.842Z,0.80
2018-11-21T10:32:03.716Z,0.80
2018-11-21T10:33:03.595Z,0.90
2018-11-21T10:34:03.470Z,0.70
2018-11-21T10:35:03.343Z,0.80
2018-11-21T10:36:03.222Z,0.80
2018-11-21T10:37:03.094Z,0.80
2018-11-21T10:38:02.971Z,0.70
2018-11-21T10:39:02.842Z,0.90
2018-11-21T10:40:02.721Z,0.80
2018-11-21T10:41:02.596Z,0.70
2018-11-21T10:42:02.469Z,0.80
2018-11-21T10:43:02.343Z,0.70
2018-11-21T10:44:02.221Z,0.70
2018-11-21T10:45:02.095Z,0.80
2018-11-21T10:46:01.971Z,0.80
2018-11-21T10:47:01.846Z,0.80
2018-11-21T10:48:01.723Z,0.80
2018-11-21T10:49:01.595Z,0.90
2018-11-21T10:50:01.472Z,0.80
2018-11-21T10:51:01.347Z,0.90
2018-11-21T10:52:01.222Z,0.80
2018-11-21T10:53:01.097Z,0.80
2018-11-21T10:54:00.975Z,0.70
2018-11-21T10:55:00.845Z,0.70
2018-11-21T10:56:00.721Z,0.80
2018-11-21T10:57:00.597Z,0.80
2018-11-21T10:58:00.485Z,0.90
2018-11-21T10:59:00.345Z,0.90
2018-11-21T11:00:00.220Z,0.80
2018-11-21T11:01:00.139Z,0.70
2018-11-21T11:01:59.980Z,0.80
2018-11-21T11:02:59.847Z,0.70
2018-11-21T11:03:59.721Z,0.80
2018-11-21T11:04:59.596Z,0.80
2018-11-21T11:05:59.472Z,0.80
2018-11-21T11:06:59.345Z,0.90
2018-11-21T11:07:59.220Z,0.80
2018-11-21T11:08:59.097Z,0.80
2018-11-21T11:10:00.139Z,0.80
2018-11-21T11:10:58.846Z,0.80
2018-11-21T11:11:58.721Z,0.70
2018-11-21T11:12:58.596Z,0.80
2018-11-21T11:13:58.471Z,0.80
2018-11-21T11:14:58.348Z,0.80
2018-11-21T11:15:58.220Z,0.70
2018-11-21T11:16:58.095Z,0.80
2018-11-21T11:17:59.605Z,0.80
2018-11-21T11:18:57.842Z,0.80
2018-11-21T11:19:57.718Z,0.90
2018-11-21T11:20:57.594Z,0.70
2018-11-21T11:21:57.466Z,0.80
2018-11-21T11:22:57.342Z,0.80
2018-11-21T11:23:57.216Z,0.70
2018-11-21T11:24:57.091Z,0.80
2018-11-21T11:25:56.965Z,0.90
2018-11-21T11:26:56.838Z,0.80
2018-11-21T11:27:56.716Z,0.80
2018-11-21T11:28:56.587Z,0.80
2018-11-21T11:29:56.464Z,0.90
2018-11-21T11:30:56.335Z,0.70
2018-11-21T11:31:56.211Z,1.00
2018-11-21T11:32:56.083Z,0.80
2018-11-21T11:33:55.956Z,1.00
2018-11-21T11:34:55.832Z,0.80
2018-11-21T11:35:55.705Z,0.90
2018-11-21T11:36:55.582Z,0.80
2018-11-21T11:37:55.453Z,0.90
2018-11-21T11:38:55.325Z,0.80
2018-11-21T11:39:55.200Z,0.80
2018-11-21T11:40:55.083Z,0.70
2018-11-21T11:41:54.949Z,0.90
2018-11-21T11:42:54.824Z,0.80
2018-11-21T11:43:54.697Z,0.80
2018-11-21T11:44:54.570Z,0.90
2018-11-21T11:45:54.447Z,0.80
2018-11-21T11:46:54.320Z,0.80
2018-11-21T11:47:54.194Z,0.80
2018-11-21T11:48:54.068Z,0.80
2018-11-21T11:49:53.939Z,0.80
2018-11-21T11:50:53.815Z,0.80
2018-11-21T11:51:53.691Z,0.70
2018-11-21T11:52:53.563Z,0.80
2018-11-21T11:53:53.435Z,0.90
2018-11-21T11:54:53.309Z,0.90
2018-11-21T11:55:53.184Z,0.80
2018-11-21T11:56:53.059Z,0.70
2018-11-21T11:57:52.931Z,0.80
2018-11-21T11:58:52.807Z,0.80
2018-11-21T11:59:52.680Z,0.80
2018-11-21T12:00:52.556Z,0.70
2018-11-21T12:01:52.428Z,0.80
2018-11-21T12:02:52.303Z,0.70
2018-11-21T12:03:57.754Z,0.70
2018-11-21T12:04:52.051Z,0.70
2018-11-21T12:05:51.930Z,0.70
2018-11-21T12:06:51.800Z,0.70
2018-11-21T12:07:51.676Z,0.70
2018-11-21T12:08:51.558Z,0.70
2018-11-21T12:09:51.424Z,0.70
2018-11-21T12:10:51.300Z,0.80
2018-11-21T12:11:51.173Z,0.80
2018-11-21T12:12:51.050Z,0.70
2018-11-21T12:13:50.921Z,0.70
2018-11-21T12:14:50.798Z,0.70
2018-11-21T12:15:50.674Z,0.70
2018-11-21T12:16:50.546Z,0.70
2018-11-21T12:17:50.420Z,0.70
2018-11-21T12:18:50.294Z,0.80
2018-11-21T12:19:50.177Z,0.70
2018-11-21T12:20:50.043Z,0.80
2018-11-21T12:21:49.919Z,0.70
2018-11-21T12:22:49.792Z,0.70
2018-11-21T12:23:49.667Z,0.70
2018-11-21T12:24:49.541Z,0.70
2018-11-21T12:25:49.414Z,0.70
2018-11-21T12:26:49.289Z,0.70
2018-11-21T12:27:49.166Z,0.70
2018-11-21T12:28:49.067Z,0.70
2018-11-21T12:29:48.913Z,0.70
2018-11-21T12:30:48.787Z,0.70
2018-11-21T12:31:48.667Z,0.70
2018-11-21T12:32:48.538Z,0.80
2018-11-21T12:33:48.411Z,0.80
2018-11-21T12:34:48.290Z,0.70
2018-11-21T12:35:48.160Z,0.70
2018-11-21T12:36:48.036Z,0.70
2018-11-21T12:37:47.908Z,0.70
2018-11-21T12:38:47.791Z,0.80
2018-11-21T12:39:47.661Z,0.80
2018-11-21T12:40:47.534Z,0.70
2018-11-21T12:41:47.417Z,0.80
2018-11-21T12:42:47.291Z,0.80
2018-11-21T12:43:47.159Z,0.80
2018-11-21T12:44:47.035Z,0.70
2018-11-21T12:45:46.911Z,0.70
2018-11-21T12:46:46.805Z,0.80
2018-11-21T12:47:46.659Z,0.70
2018-11-21T12:48:46.543Z,0.80
2018-11-21T12:49:46.410Z,0.70
2018-11-21T12:50:46.283Z,0.80
2018-11-21T12:51:46.158Z,0.80
2018-11-21T12:52:46.036Z,0.70
2018-11-21T12:53:45.908Z,0.70
2018-11-21T12:54:45.785Z,0.80
2018-11-21T12:55:45.656Z,0.70
2018-11-21T12:56:45.531Z,0.70
2018-11-21T12:57:45.406Z,0.70
2018-11-21T12:58:45.280Z,0.70
2018-11-21T12:59:45.155Z,0.70
2018-11-21T13:00:45.032Z,0.70
2018-11-21T13:01:44.906Z,0.70
2018-11-21T13:02:44.826Z,0.80
2018-11-21T13:03:44.654Z,0.70
2018-11-21T13:04:44.530Z,0.70
2018-11-21T13:05:44.407Z,0.70
2018-11-21T13:06:44.279Z,0.70
2018-11-21T13:07:44.154Z,0.80
2018-11-21T13:08:44.034Z,0.70
2018-11-21T13:09:43.904Z,0.70
2018-11-21T13:10:43.798Z,0.70
2018-11-21T13:11:43.656Z,0.70
2018-11-21T13:12:43.532Z,0.70
2018-11-21T13:13:43.406Z,0.70
2018-11-21T13:14:43.284Z,0.80
2018-11-21T13:15:43.657Z,0.80
2018-11-21T13:16:43.053Z,0.70